createdAt,value
2018-04-14T00:00:55.954Z,10.88
2018-04-14T00:01:59.601Z,10.80
2018-04-14T00:03:02.391Z,10.84
2018-04-14T00:04:05.156Z,10.83
2018-04-14T00:05:07.951Z,10.77
2018-04-14T00:06:10.766Z,10.71
2018-04-14T00:07:14.092Z,10.67
2018-04-14T00:08:16.890Z,10.66
2018-04-14T00:09:19.710Z,10.68
2018-04-14T00:10:22.531Z,10.71
2018-04-14T00:11:25.306Z,10.76
2018-04-14T00:12:28.115Z,10.80
2018-04-14T00:13:31.310Z,10.80
2018-04-14T00:14:34.210Z,10.86
2018-04-14T00:15:37.014Z,10.83
2018-04-14T00:16:39.860Z,10.81
2018-04-14T00:17:42.682Z,10.84
2018-04-14T00:18:45.484Z,10.83
2018-04-14T00:19:48.724Z,10.85
2018-04-14T00:20:51.495Z,10.93
2018-04-14T00:21:54.235Z,10.99
2018-04-14T00:22:56.956Z,11.04
2018-04-14T00:23:59.741Z,10.98
2018-04-14T00:25:02.601Z,11.00
2018-04-14T00:26:05.385Z,10.98
2018-04-14T00:27:08.163Z,11.00
2018-04-14T00:28:10.965Z,10.97
2018-04-14T00:29:13.684Z,10.90
2018-04-14T00:30:16.392Z,10.83
2018-04-14T00:31:19.034Z,10.86
2018-04-14T00:32:22.089Z,10.82
2018-04-14T00:33:24.718Z,10.80
2018-04-14T00:34:27.443Z,10.79
2018-04-14T00:36:41.409Z,10.79
2018-04-14T00:37:44.386Z,10.77
2018-04-14T00:38:47.420Z,10.74
2018-04-14T00:39:50.168Z,10.70
2018-04-14T00:40:52.951Z,10.77
2018-04-14T00:41:55.830Z,10.82
2018-04-14T00:42:58.583Z,10.84
2018-04-14T00:44:01.377Z,10.88
2018-04-14T00:45:04.454Z,10.90
2018-04-14T00:46:07.256Z,10.92
2018-04-14T00:47:10.043Z,10.94
2018-04-14T00:48:12.834Z,10.91
2018-04-14T00:49:16.729Z,10.90
2018-04-14T00:50:19.466Z,10.85
2018-04-14T00:51:22.782Z,10.81
2018-04-14T00:52:25.491Z,10.74
2018-04-14T00:53:28.288Z,10.70
2018-04-14T00:54:31.120Z,10.64
2018-04-14T00:55:34.717Z,10.59
2018-04-14T00:56:37.591Z,10.56
2018-04-14T00:57:40.798Z,10.58
2018-04-14T00:58:43.622Z,10.50
2018-04-14T00:59:46.404Z,10.40
2018-04-14T01:00:49.165Z,10.39
2018-04-14T01:01:51.931Z,10.36
2018-04-14T01:02:54.675Z,10.32
2018-04-14T01:03:57.796Z,10.31
2018-04-14T01:05:00.581Z,10.29
2018-04-14T01:06:03.342Z,10.22
2018-04-14T01:07:06.091Z,10.15
2018-04-14T01:08:13.721Z,10.12
2018-04-14T01:09:16.490Z,10.12
2018-04-14T01:10:19.782Z,10.10
2018-04-14T01:11:22.530Z,10.06
2018-04-14T01:12:25.328Z,10.00
2018-04-14T01:13:28.140Z,10.00
2018-04-14T01:14:30.938Z,10.01
2018-04-14T01:15:33.748Z,9.98
2018-04-14T01:16:36.850Z,9.94
2018-04-14T01:17:39.620Z,9.91
2018-04-14T01:18:42.735Z,9.86
2018-04-14T01:19:45.632Z,9.85
2018-04-14T01:20:48.453Z,9.86
2018-04-14T01:21:51.261Z,9.86
2018-04-14T01:22:54.502Z,9.84
2018-04-14T01:23:57.328Z,9.79
2018-04-14T01:25:00.209Z,9.69
2018-04-14T01:26:03.011Z,9.72
2018-04-14T01:27:05.843Z,9.70
2018-04-14T01:28:08.597Z,9.65
2018-04-14T01:29:11.768Z,9.63
2018-04-14T01:30:14.549Z,9.56
2018-04-14T01:31:17.353Z,9.55
2018-04-14T01:32:21.208Z,9.50
2018-04-14T01:33:23.986Z,9.40
2018-04-14T01:34:26.865Z,9.42
2018-04-14T01:35:29.876Z,9.36
2018-04-14T01:36:32.667Z,9.28
2018-04-14T01:37:35.416Z,9.33
2018-04-14T01:38:39.205Z,9.38
2018-04-14T01:39:42.022Z,9.39
2018-04-14T01:40:44.856Z,9.36
2018-04-14T01:41:48.003Z,9.38
2018-04-14T01:42:50.954Z,9.40
2018-04-14T01:43:53.809Z,9.38
2018-04-14T01:44:58.262Z,9.37
2018-04-14T01:46:01.086Z,9.37
2018-04-14T01:47:03.849Z,9.35
2018-04-14T01:48:06.839Z,9.38
2018-04-14T01:49:10.067Z,9.39
2018-04-14T01:50:12.845Z,9.44
2018-04-14T01:51:15.703Z,9.48
2018-04-14T01:52:18.562Z,9.50
2018-04-14T01:53:21.469Z,9.55
2018-04-14T01:54:24.576Z,9.60
2018-04-14T01:55:27.405Z,9.60
2018-04-14T01:56:30.182Z,9.61
2018-04-14T01:57:32.933Z,9.57
2018-04-14T01:58:35.710Z,9.52
2018-04-14T01:59:38.991Z,9.49
2018-04-14T02:00:42.093Z,9.49
2018-04-14T02:01:44.918Z,9.55
2018-04-14T02:02:47.823Z,9.58
2018-04-14T02:03:50.701Z,9.57
2018-04-14T02:04:53.507Z,9.63
2018-04-14T02:05:56.321Z,9.65
2018-04-14T02:06:59.474Z,9.69
2018-04-14T02:08:02.296Z,9.65
2018-04-14T02:09:05.123Z,9.66
2018-04-14T02:10:07.962Z,9.60
2018-04-14T02:11:10.795Z,9.50
2018-04-14T02:12:13.602Z,9.43
2018-04-14T02:13:16.703Z,9.47
2018-04-14T02:14:19.523Z,9.52
2018-04-14T02:15:22.320Z,9.57
2018-04-14T02:16:25.123Z,9.62
2018-04-14T02:17:27.935Z,9.64
2018-04-14T02:18:30.721Z,9.66
2018-04-14T02:19:33.814Z,9.59
2018-04-14T02:20:36.621Z,9.57
2018-04-14T02:21:39.891Z,9.53
2018-04-14T02:22:42.739Z,9.46
2018-04-14T02:23:45.547Z,9.41
2018-04-14T02:24:48.349Z,9.32
2018-04-14T02:25:51.467Z,9.32
2018-04-14T02:26:54.285Z,9.34
2018-04-14T02:27:57.106Z,9.41
2018-04-14T02:28:59.929Z,9.50
2018-04-14T02:30:02.787Z,9.55
2018-04-14T02:31:05.578Z,9.57
2018-04-14T02:32:08.701Z,9.60
2018-04-14T02:33:12.214Z,9.65
2018-04-14T02:34:15.081Z,9.71
2018-04-14T02:35:17.906Z,9.75
2018-04-14T02:36:20.748Z,9.76
2018-04-14T02:37:23.622Z,9.73
2018-04-14T02:38:27.231Z,9.71
2018-04-14T02:39:30.060Z,9.65
2018-04-14T02:40:32.988Z,9.54
2018-04-14T02:41:35.850Z,9.41
2018-04-14T02:42:38.649Z,9.34
2018-04-14T02:43:41.382Z,9.35
2018-04-14T02:44:44.433Z,9.32
2018-04-14T02:45:47.187Z,9.25
2018-04-14T02:46:49.934Z,9.32
2018-04-14T02:47:52.771Z,9.28
2018-04-14T02:48:55.606Z,9.28
2018-04-14T02:49:58.433Z,9.20
2018-04-14T02:51:01.520Z,9.13
2018-04-14T02:52:04.317Z,9.11
2018-04-14T02:53:07.067Z,9.08
2018-04-14T02:54:09.902Z,9.03
2018-04-14T02:55:12.731Z,9.11
2018-04-14T02:56:15.489Z,9.14
2018-04-14T02:57:18.800Z,9.14
2018-04-14T02:58:21.625Z,9.08
2018-04-14T02:59:24.392Z,9.03
2018-04-14T03:00:27.226Z,9.02
2018-04-14T03:01:30.235Z,8.99
2018-04-14T03:02:32.960Z,8.97
2018-04-14T03:03:35.734Z,8.88
2018-04-14T03:04:38.499Z,8.77
2018-04-14T03:05:41.247Z,8.74
2018-04-14T03:06:44.086Z,8.73
2018-04-14T03:07:46.939Z,8.68
2018-04-14T03:08:49.998Z,8.63
2018-04-14T03:09:52.813Z,8.66
2018-04-14T03:10:55.610Z,8.67
2018-04-14T03:11:58.474Z,8.68
2018-04-14T03:13:01.280Z,8.67
2018-04-14T03:14:04.066Z,8.67
2018-04-14T03:15:07.208Z,8.73
2018-04-14T03:16:09.989Z,8.75
2018-04-14T03:17:12.868Z,8.73
2018-04-14T03:18:15.728Z,8.78
2018-04-14T03:19:18.535Z,8.80
2018-04-14T03:20:21.357Z,8.81
2018-04-14T03:21:24.459Z,8.81
2018-04-14T03:22:27.249Z,8.83
2018-04-14T03:23:30.046Z,8.84
2018-04-14T03:24:32.854Z,8.72
2018-04-14T03:25:35.685Z,8.70
2018-04-14T03:26:38.473Z,8.71
2018-04-14T03:27:41.689Z,8.65
2018-04-14T03:28:44.398Z,8.59
2018-04-14T03:29:47.146Z,8.53
2018-04-14T03:30:49.853Z,8.48
2018-04-14T03:31:52.538Z,8.41
2018-04-14T03:32:55.238Z,8.31
2018-04-14T03:33:58.256Z,8.27
2018-04-14T03:35:01.008Z,8.24
2018-04-14T03:36:03.708Z,8.28
2018-04-14T03:37:06.434Z,8.26
2018-04-14T03:38:09.268Z,8.33
2018-04-14T03:39:12.112Z,8.35
2018-04-14T03:40:15.214Z,8.34
2018-04-14T03:41:18.009Z,8.27
2018-04-14T03:42:21.062Z,8.25
2018-04-14T03:43:23.736Z,8.24
2018-04-14T03:44:26.376Z,8.26
2018-04-14T03:45:29.018Z,8.29
2018-04-14T03:46:31.935Z,8.30
2018-04-14T03:47:34.573Z,8.32
2018-04-14T03:48:37.217Z,8.28
2018-04-14T03:49:40.026Z,8.24
2018-04-14T03:50:42.774Z,8.19
2018-04-14T03:51:45.513Z,8.23
2018-04-14T03:52:48.554Z,8.28
2018-04-14T03:53:51.311Z,8.26
2018-04-14T03:54:54.032Z,8.21
2018-04-14T03:55:56.770Z,8.19
2018-04-14T03:56:59.498Z,8.20
2018-04-14T03:58:02.242Z,8.23
2018-04-14T03:59:05.450Z,8.17
2018-04-14T04:00:08.245Z,8.07
2018-04-14T04:01:11.677Z,8.10
2018-04-14T04:02:14.501Z,8.11
2018-04-14T04:03:17.288Z,8.17
2018-04-14T04:04:20.101Z,8.28
2018-04-14T04:05:23.176Z,8.27
2018-04-14T04:06:25.966Z,8.20
2018-04-14T04:07:29.197Z,8.19
2018-04-14T04:08:31.978Z,8.11
2018-04-14T04:09:34.824Z,8.16
2018-04-14T04:10:37.608Z,8.17
2018-04-14T04:11:40.710Z,8.21
2018-04-14T04:12:43.506Z,8.29
2018-04-14T04:13:46.316Z,8.33
2018-04-14T04:14:49.105Z,8.40
2018-04-14T04:15:51.966Z,8.49
2018-04-14T04:16:54.783Z,8.52
2018-04-14T04:17:57.937Z,8.48
2018-04-14T04:19:01.148Z,8.41
2018-04-14T04:20:04.405Z,8.33
2018-04-14T04:21:07.236Z,8.31
2018-04-14T04:22:10.015Z,8.33
2018-04-14T04:23:12.853Z,8.35
2018-04-14T04:24:15.934Z,8.37
2018-04-14T04:25:18.766Z,8.41
2018-04-14T04:26:21.559Z,8.46
2018-04-14T04:27:24.358Z,8.49
2018-04-14T04:28:27.150Z,8.50
2018-04-14T04:29:29.929Z,8.56
2018-04-14T04:30:33.922Z,8.63
2018-04-14T04:31:36.702Z,8.66
2018-04-14T04:32:39.590Z,8.68
2018-04-14T04:33:42.656Z,8.69
2018-04-14T04:34:45.405Z,8.70
2018-04-14T04:35:48.347Z,8.74
2018-04-14T04:36:51.770Z,8.75
2018-04-14T04:37:54.853Z,8.77
2018-04-14T04:38:57.692Z,8.74
2018-04-14T04:40:00.510Z,8.72
2018-04-14T04:41:03.318Z,8.75
2018-04-14T04:42:06.098Z,8.74
2018-04-14T04:43:09.238Z,8.77
2018-04-14T04:44:12.069Z,8.78
2018-04-14T04:45:15.440Z,8.73
2018-04-14T04:46:18.254Z,8.72
2018-04-14T04:47:21.034Z,8.67
2018-04-14T04:48:23.868Z,8.65
2018-04-14T04:49:27.054Z,8.64
2018-04-14T04:50:29.790Z,8.60
2018-04-14T04:51:32.532Z,8.60
2018-04-14T04:52:35.317Z,8.58
2018-04-14T04:53:38.118Z,8.55
2018-04-14T04:54:40.947Z,8.54
2018-04-14T04:55:44.040Z,8.57
2018-04-14T04:56:46.811Z,8.51
2018-04-14T04:57:49.619Z,8.49
2018-04-14T04:58:52.413Z,8.46
2018-04-14T04:59:55.221Z,8.38
2018-04-14T05:00:58.126Z,8.33
2018-04-14T05:02:01.364Z,8.25
2018-04-14T05:03:04.152Z,8.21
2018-04-14T05:04:08.002Z,8.21
2018-04-14T05:05:11.126Z,8.10
2018-04-14T05:06:13.951Z,8.01
2018-04-14T05:07:16.818Z,7.94
2018-04-14T05:08:19.916Z,7.98
2018-04-14T05:09:22.865Z,7.98
2018-04-14T05:10:25.673Z,8.00
2018-04-14T05:11:28.478Z,8.05
2018-04-14T05:12:31.358Z,8.04
2018-04-14T05:13:34.201Z,8.00
2018-04-14T05:14:36.917Z,8.00
2018-04-14T05:15:39.664Z,8.07
2018-04-14T05:16:42.401Z,8.12
2018-04-14T05:17:45.149Z,8.19
2018-04-14T05:18:47.930Z,8.24
2018-04-14T05:19:50.754Z,8.19
2018-04-14T05:20:53.537Z,8.22
2018-04-14T05:21:56.331Z,8.26
2018-04-14T05:22:59.165Z,8.22
2018-04-14T05:24:01.886Z,8.18
2018-04-14T05:25:04.570Z,8.22
2018-04-14T05:26:07.546Z,8.21
2018-04-14T05:27:10.270Z,8.17
2018-04-14T05:28:12.998Z,8.14
2018-04-14T05:29:15.801Z,8.17
2018-04-14T05:30:18.583Z,8.13
2018-04-14T05:31:21.323Z,8.21
2018-04-14T05:32:24.340Z,8.17
2018-04-14T05:33:27.088Z,8.14
2018-04-14T05:34:29.913Z,8.16
2018-04-14T05:35:32.931Z,8.22
2018-04-14T05:36:35.792Z,8.23
2018-04-14T05:37:38.654Z,8.31
2018-04-14T05:38:41.829Z,8.36
2018-04-14T05:39:44.628Z,8.44
2018-04-14T05:40:47.522Z,8.53
2018-04-14T05:41:50.328Z,8.54
2018-04-14T05:42:53.138Z,8.62
2018-04-14T05:43:55.943Z,8.68
2018-04-14T05:44:59.184Z,8.75
2018-04-14T05:46:02.046Z,8.80
2018-04-14T05:47:04.917Z,8.87
2018-04-14T05:48:07.697Z,8.93
2018-04-14T05:49:10.525Z,8.95
2018-04-14T05:50:13.239Z,8.97
2018-04-14T05:51:17.016Z,9.02
2018-04-14T05:52:19.857Z,8.95
2018-04-14T05:53:22.717Z,8.85
2018-04-14T05:54:25.607Z,8.90
2018-04-14T05:55:28.426Z,8.85
2018-04-14T05:56:31.248Z,8.79
2018-04-14T05:57:34.405Z,8.73
2018-04-14T05:58:37.467Z,8.84
2018-04-14T05:59:40.308Z,8.88
2018-04-14T06:00:43.232Z,8.93
2018-04-14T06:01:46.083Z,8.95
2018-04-14T06:02:48.905Z,8.97
2018-04-14T06:03:52.098Z,8.93
2018-04-14T06:04:54.934Z,8.86
2018-04-14T06:05:58.266Z,8.84
2018-04-14T06:07:01.125Z,8.89
2018-04-14T06:08:03.943Z,8.95
2018-04-14T06:09:06.782Z,9.06
2018-04-14T06:10:09.884Z,9.16
2018-04-14T06:11:12.631Z,9.24
2018-04-14T06:12:15.406Z,9.32
2018-04-14T06:13:18.137Z,9.41
2018-04-14T06:14:20.888Z,9.50
2018-04-14T06:15:25.799Z,9.58
2018-04-14T06:16:29.778Z,9.64
2018-04-14T06:17:33.020Z,9.69
2018-04-14T06:18:35.833Z,9.75
2018-04-14T06:19:38.642Z,9.80
2018-04-14T06:20:41.515Z,9.86
2018-04-14T06:21:44.352Z,9.92
2018-04-14T06:22:47.490Z,9.99
2018-04-14T06:23:50.183Z,10.06
2018-04-14T06:24:53.019Z,10.14
2018-04-14T06:25:55.774Z,10.29
2018-04-14T06:26:58.494Z,10.35
2018-04-14T06:28:01.340Z,10.49
2018-04-14T06:29:04.411Z,10.65
2018-04-14T06:30:07.226Z,10.76
2018-04-14T06:31:10.019Z,10.80
2018-04-14T06:32:12.805Z,10.86
2018-04-14T06:33:15.630Z,10.93
2018-04-14T06:34:18.457Z,10.99
2018-04-14T06:35:21.580Z,11.03
2018-04-14T06:36:24.475Z,11.05
2018-04-14T06:37:27.263Z,11.00
2018-04-14T06:38:30.076Z,10.90
2018-04-14T06:39:32.895Z,10.70
2018-04-14T06:40:35.765Z,10.61
2018-04-14T06:41:38.948Z,10.67
2018-04-14T06:42:41.780Z,10.58
2018-04-14T06:43:44.633Z,10.64
2018-04-14T06:44:47.434Z,10.67
2018-04-14T06:45:50.251Z,10.76
2018-04-14T06:46:53.187Z,10.77
2018-04-14T06:47:56.026Z,10.45
2018-04-14T06:48:58.880Z,9.93
2018-04-14T06:50:01.692Z,9.68
2018-04-14T06:51:04.424Z,9.55
2018-04-14T06:52:07.252Z,9.43
2018-04-14T06:53:10.476Z,9.27
2018-04-14T06:54:13.267Z,9.21
2018-04-14T06:55:16.073Z,9.32
2018-04-14T06:56:18.861Z,9.41
2018-04-14T06:57:21.716Z,9.38
2018-04-14T06:58:24.590Z,9.25
2018-04-14T06:59:28.357Z,9.30
2018-04-14T07:00:31.185Z,9.45
2018-04-14T07:01:34.017Z,9.47
2018-04-14T07:02:36.801Z,9.59
2018-04-14T07:03:39.618Z,9.67
2018-04-14T07:04:42.409Z,9.82
2018-04-14T07:05:46.108Z,10.00
2018-04-14T07:06:49.044Z,10.26
2018-04-14T07:07:51.878Z,10.49
2018-04-14T07:08:54.764Z,10.74
2018-04-14T07:09:57.739Z,10.93
2018-04-14T07:11:00.525Z,11.24
2018-04-14T07:12:04.219Z,11.39
2018-04-14T07:13:07.050Z,11.41
2018-04-14T07:14:09.891Z,11.57
2018-04-14T07:15:12.745Z,11.90
2018-04-14T07:16:15.587Z,12.14
2018-04-14T07:17:18.438Z,12.26
2018-04-14T07:18:21.573Z,12.54
2018-04-14T07:19:24.412Z,12.98
2018-04-14T07:20:27.222Z,13.04
2018-04-14T07:21:30.106Z,13.22
2018-04-14T07:22:32.993Z,13.45
2018-04-14T07:23:36.045Z,13.60
2018-04-14T07:24:39.136Z,14.04
2018-04-14T07:25:42.047Z,14.41
2018-04-14T07:26:44.884Z,14.79
2018-04-14T07:27:47.732Z,15.06
2018-04-14T07:28:50.725Z,15.25
2018-04-14T07:29:53.806Z,15.53
2018-04-14T07:31:00.041Z,15.73
2018-04-14T07:32:02.897Z,15.75
2018-04-14T07:33:07.222Z,15.90
2018-04-14T07:34:11.624Z,15.91
2018-04-14T07:35:15.767Z,15.85
2018-04-14T07:36:18.519Z,15.99
2018-04-14T07:37:21.687Z,16.21
2018-04-14T07:38:24.462Z,16.34
2018-04-14T07:39:29.477Z,16.21
2018-04-14T07:40:33.370Z,16.17
2018-04-14T07:41:36.285Z,16.39
2018-04-14T07:42:39.183Z,16.43
2018-04-14T07:43:42.611Z,16.60
2018-04-14T07:44:46.448Z,16.79
2018-04-14T07:45:50.704Z,16.88
2018-04-14T07:46:53.953Z,16.94
2018-04-14T07:47:56.810Z,16.86
2018-04-14T07:48:59.671Z,17.10
2018-04-14T07:50:03.004Z,17.32
2018-04-14T07:51:07.173Z,17.25
2018-04-14T07:52:10.054Z,17.28
2018-04-14T07:53:13.294Z,17.29
2018-04-14T07:54:16.223Z,16.71
2018-04-14T07:55:22.005Z,17.09
2018-04-14T07:56:26.233Z,17.19
2018-04-14T07:57:30.102Z,17.47
2018-04-14T07:58:32.961Z,17.68
2018-04-14T07:59:35.834Z,17.97
2018-04-14T08:00:38.825Z,17.48
2018-04-14T08:01:42.155Z,17.04
2018-04-14T08:02:45.721Z,16.67
2018-04-14T08:03:48.563Z,16.66
2018-04-14T08:04:51.409Z,16.85
2018-04-14T08:05:54.820Z,17.34
2018-04-14T08:06:59.173Z,17.05
2018-04-14T08:08:02.925Z,16.74
2018-04-14T08:09:06.659Z,16.69
2018-04-14T08:10:09.548Z,16.90
2018-04-14T08:11:12.416Z,17.08
2018-04-14T08:12:15.641Z,17.11
2018-04-14T08:13:19.209Z,17.09
2018-04-14T08:14:22.074Z,17.02
2018-04-14T08:15:25.124Z,16.85
2018-04-14T08:16:28.976Z,17.19
2018-04-14T08:17:33.059Z,17.35
2018-04-14T08:18:36.288Z,17.83
2018-04-14T08:19:39.118Z,18.45
2018-04-14T08:20:41.880Z,18.89
2018-04-14T08:21:45.155Z,19.12
2018-04-14T08:22:49.930Z,19.37
2018-04-14T08:23:54.278Z,19.57
2018-04-14T08:24:57.256Z,19.63
2018-04-14T08:26:00.070Z,20.02
2018-04-14T08:27:03.320Z,20.21
2018-04-14T08:28:08.098Z,20.21
2018-04-14T08:29:11.875Z,20.44
2018-04-14T08:30:14.959Z,20.30
2018-04-14T08:31:17.835Z,18.96
2018-04-14T08:32:20.646Z,18.47
2018-04-14T08:33:23.661Z,18.40
2018-04-14T08:34:27.346Z,19.07
2018-04-14T08:35:30.214Z,18.92
2018-04-14T08:36:32.944Z,19.10
2018-04-14T08:37:35.905Z,19.43
2018-04-14T08:38:39.485Z,19.40
2018-04-14T08:39:43.596Z,19.75
2018-04-14T08:40:47.043Z,20.23
2018-04-14T08:41:50.089Z,20.47
2018-04-14T08:42:53.343Z,20.29
2018-04-14T08:43:57.594Z,20.32
2018-04-14T08:45:01.134Z,20.20
2018-04-14T08:46:03.893Z,20.66
2018-04-14T08:47:06.986Z,20.50
2018-04-14T08:48:09.939Z,19.72
2018-04-14T08:49:14.034Z,19.57
2018-04-14T08:50:17.485Z,19.49
2018-04-14T08:51:20.342Z,19.44
2018-04-14T08:52:23.222Z,19.77
2018-04-14T08:53:27.892Z,19.91
2018-04-14T08:54:31.630Z,20.32
2018-04-14T08:55:34.447Z,20.66
2018-04-14T08:56:37.278Z,20.85
2018-04-14T08:57:40.118Z,20.07
2018-04-14T08:58:46.027Z,20.03
2018-04-14T08:59:49.892Z,20.43
2018-04-14T09:00:53.960Z,20.93
2018-04-14T09:01:56.911Z,21.21
2018-04-14T09:02:59.724Z,20.99
2018-04-14T09:04:02.569Z,20.61
2018-04-14T09:05:07.284Z,20.94
2018-04-14T09:06:10.856Z,20.60
2018-04-14T09:07:13.690Z,20.19
2018-04-14T09:08:16.500Z,19.89
2018-04-14T09:09:19.278Z,19.32
2018-04-14T09:10:22.441Z,19.43
2018-04-14T09:11:25.619Z,19.66
2018-04-14T09:12:28.379Z,19.63
2018-04-14T09:13:31.272Z,19.54
2018-04-14T09:14:34.169Z,18.75
2018-04-14T09:15:37.017Z,17.87
2018-04-14T09:16:40.307Z,17.79
2018-04-14T09:17:43.205Z,17.91
2018-04-14T09:18:46.069Z,18.11
2018-04-14T09:19:48.903Z,18.43
2018-04-14T09:20:51.831Z,18.71
2018-04-14T09:21:54.706Z,19.16
2018-04-14T09:22:57.851Z,19.47
2018-04-14T09:24:00.728Z,19.74
2018-04-14T09:25:03.532Z,19.95
2018-04-14T09:26:06.374Z,20.05
2018-04-14T09:27:09.256Z,20.36
2018-04-14T09:28:12.085Z,20.16
2018-04-14T09:29:15.225Z,20.03
2018-04-14T09:30:18.073Z,19.65
2018-04-14T09:31:21.016Z,19.15
2018-04-14T09:32:23.854Z,19.77
2018-04-14T09:33:26.777Z,20.03
2018-04-14T09:34:29.733Z,20.34
2018-04-14T09:35:32.948Z,20.54
2018-04-14T09:36:35.751Z,20.54
2018-04-14T09:37:38.794Z,20.33
2018-04-14T09:38:41.605Z,20.13
2018-04-14T09:39:44.413Z,20.23
2018-04-14T09:40:47.230Z,19.56
2018-04-14T09:41:50.469Z,19.44
2018-04-14T09:42:53.327Z,19.58
2018-04-14T09:43:56.795Z,19.54
2018-04-14T09:44:59.652Z,18.38
2018-04-14T09:46:02.596Z,17.81
2018-04-14T09:47:05.707Z,18.19
2018-04-14T09:48:08.885Z,17.86
2018-04-14T09:49:11.740Z,17.77
2018-04-14T09:50:14.564Z,17.36
2018-04-14T09:51:17.448Z,17.42
2018-04-14T09:52:21.423Z,17.04
2018-04-14T09:53:25.526Z,16.34
2018-04-14T09:54:28.429Z,16.26
2018-04-14T09:55:31.221Z,16.36
2018-04-14T09:56:34.134Z,16.87
2018-04-14T09:57:38.513Z,17.27
2018-04-14T09:58:41.581Z,17.32
2018-04-14T09:59:44.875Z,17.63
2018-04-14T10:00:51.798Z,17.81
2018-04-14T10:01:54.809Z,17.86
2018-04-14T10:03:01.005Z,18.11
2018-04-14T10:04:03.837Z,18.08
2018-04-14T10:05:07.181Z,18.43
2018-04-14T10:06:10.420Z,18.24
2018-04-14T10:07:13.268Z,18.37
2018-04-14T10:08:16.007Z,18.39
2018-04-14T10:09:19.849Z,18.14
2018-04-14T10:10:23.080Z,18.01
2018-04-14T10:11:26.956Z,17.90
2018-04-14T10:12:29.871Z,18.19
2018-04-14T10:13:33.687Z,18.38
2018-04-14T10:14:36.570Z,18.61
2018-04-14T10:15:40.812Z,18.28
2018-04-14T10:16:44.012Z,18.62
2018-04-14T10:17:47.052Z,18.42
2018-04-14T10:18:49.818Z,18.39
2018-04-14T10:19:52.794Z,17.57
2018-04-14T10:20:57.233Z,17.26
2018-04-14T10:22:00.388Z,16.87
2018-04-14T10:23:03.886Z,16.90
2018-04-14T10:24:07.107Z,17.15
2018-04-14T10:25:09.930Z,16.67
2018-04-14T10:26:13.916Z,16.31
2018-04-14T10:27:17.188Z,16.62
2018-04-14T10:28:20.038Z,16.32
2018-04-14T10:29:22.930Z,16.43
2018-04-14T10:30:27.203Z,16.12
2018-04-14T10:31:30.767Z,16.16
2018-04-14T10:32:34.681Z,16.15
2018-04-14T10:33:37.573Z,16.30
2018-04-14T10:34:40.436Z,16.39
2018-04-14T10:35:43.231Z,16.59
2018-04-14T10:36:47.841Z,17.03
2018-04-14T10:37:50.913Z,17.21
2018-04-14T10:38:53.726Z,17.78
2018-04-14T10:39:56.597Z,18.32
2018-04-14T10:41:00.343Z,18.76
2018-04-14T10:42:04.367Z,19.10
2018-04-14T10:43:07.544Z,19.02
2018-04-14T10:44:10.391Z,18.62
2018-04-14T10:45:13.387Z,18.28
2018-04-14T10:46:16.541Z,18.06
2018-04-14T10:47:19.573Z,17.91
2018-04-14T10:48:22.462Z,17.97
2018-04-14T10:49:25.704Z,17.91
2018-04-14T10:50:29.023Z,17.57
2018-04-14T10:51:32.887Z,17.73
2018-04-14T10:52:35.662Z,17.72
2018-04-14T10:53:38.430Z,17.43
2018-04-14T10:54:41.172Z,17.14
2018-04-14T10:55:44.790Z,17.58
2018-04-14T10:56:48.688Z,17.68
2018-04-14T10:57:51.445Z,17.83
2018-04-14T10:58:54.231Z,17.32
2018-04-14T10:59:57.826Z,17.01
2018-04-14T11:01:01.280Z,17.05
2018-04-14T11:02:05.346Z,17.13
2018-04-14T11:03:08.210Z,17.34
2018-04-14T11:04:11.034Z,17.35
2018-04-14T11:05:14.051Z,17.25
2018-04-14T11:06:18.623Z,17.50
2018-04-14T11:07:21.646Z,17.51
2018-04-14T11:08:24.735Z,17.67
2018-04-14T11:09:27.529Z,17.61
2018-04-14T11:10:33.842Z,17.54
2018-04-14T11:11:37.092Z,17.94
2018-04-14T11:12:40.846Z,18.13
2018-04-14T11:13:43.918Z,18.00
2018-04-14T11:14:46.986Z,17.38
2018-04-14T11:15:49.889Z,17.03
2018-04-14T11:16:52.869Z,17.09
2018-04-14T11:17:56.352Z,16.82
2018-04-14T11:18:59.351Z,16.69
2018-04-14T11:20:02.234Z,16.62
2018-04-14T11:21:05.376Z,16.83
2018-04-14T11:22:08.592Z,17.09
2018-04-14T11:23:12.522Z,17.58
2018-04-14T11:24:15.475Z,17.84
2018-04-14T11:25:18.352Z,17.66
2018-04-14T11:26:21.200Z,17.53
2018-04-14T11:27:24.797Z,17.17
2018-04-14T11:28:27.944Z,17.17
2018-04-14T11:29:30.908Z,17.24
2018-04-14T11:30:34.230Z,17.40
2018-04-14T11:31:37.369Z,17.64
2018-04-14T11:32:41.065Z,17.31
2018-04-14T11:33:44.504Z,17.28
2018-04-14T11:34:47.401Z,17.14
2018-04-14T11:35:50.213Z,17.07
2018-04-14T11:36:54.128Z,16.78
2018-04-14T11:37:57.836Z,16.79
2018-04-14T11:39:00.738Z,16.82
2018-04-14T11:40:04.051Z,16.84
2018-04-14T11:41:06.891Z,17.13
2018-04-14T11:42:10.388Z,17.37
2018-04-14T11:43:14.686Z,17.79
2018-04-14T11:44:17.536Z,17.93
2018-04-14T11:45:20.314Z,18.17
2018-04-14T11:46:23.823Z,18.07
2018-04-14T11:47:27.229Z,18.15
2018-04-14T11:48:30.162Z,18.42
2018-04-14T11:49:33.064Z,18.50
2018-04-14T11:50:35.893Z,18.48
2018-04-14T11:51:39.645Z,18.14
2018-04-14T11:52:43.576Z,18.09
2018-04-14T11:53:46.387Z,17.98
2018-04-14T11:54:49.265Z,17.87
2018-04-14T11:55:52.155Z,17.59
2018-04-14T11:56:56.260Z,17.37
2018-04-14T11:58:00.962Z,17.21
2018-04-14T11:59:04.446Z,17.03
2018-04-14T12:00:07.315Z,16.95
2018-04-14T12:01:10.193Z,17.08
2018-04-14T12:02:13.444Z,17.28
2018-04-14T12:03:16.714Z,17.43
2018-04-14T12:04:19.582Z,17.52
2018-04-14T12:05:22.962Z,17.80
2018-04-14T12:06:25.801Z,17.85
2018-04-14T12:07:29.779Z,18.30
2018-04-14T12:08:32.719Z,18.22
2018-04-14T12:09:35.709Z,18.48
2018-04-14T12:10:38.541Z,18.26
2018-04-14T12:11:43.032Z,18.21
2018-04-14T12:12:48.851Z,18.19
2018-04-14T12:13:52.040Z,18.01
2018-04-14T12:14:56.097Z,18.00
2018-04-14T12:15:58.994Z,17.79
2018-04-14T12:17:02.807Z,17.47
2018-04-14T12:18:06.013Z,17.43
2018-04-14T12:19:09.498Z,17.48
2018-04-14T12:20:12.662Z,17.57
2018-04-14T12:21:15.500Z,17.64
2018-04-14T12:22:18.328Z,17.65
2018-04-14T12:23:21.599Z,17.48
2018-04-14T12:24:26.600Z,17.30
2018-04-14T12:25:30.280Z,17.44
2018-04-14T12:26:33.270Z,17.45
2018-04-14T12:27:36.068Z,17.41
2018-04-14T12:28:39.132Z,17.61
2018-04-14T12:29:42.201Z,17.63
2018-04-14T12:30:45.483Z,17.66
2018-04-14T12:31:48.278Z,17.94
2018-04-14T12:32:51.110Z,17.93
2018-04-14T12:33:54.648Z,18.16
2018-04-14T12:34:57.719Z,18.54
2018-04-14T12:36:00.502Z,18.69
2018-04-14T12:37:03.697Z,18.67
2018-04-14T12:38:07.520Z,18.22
2018-04-14T12:39:10.558Z,18.20
2018-04-14T12:40:13.886Z,18.72
2018-04-14T12:41:16.818Z,19.20
2018-04-14T12:42:19.679Z,19.26
2018-04-14T12:43:23.792Z,19.14
2018-04-14T12:44:27.043Z,18.80
2018-04-14T12:45:35.207Z,18.72
2018-04-14T12:46:38.485Z,18.66
2018-04-14T12:47:41.489Z,18.48
2018-04-14T12:48:44.263Z,18.02
2018-04-14T12:49:47.405Z,17.97
2018-04-14T12:50:50.330Z,17.94
2018-04-14T12:51:55.317Z,17.88
2018-04-14T12:52:59.617Z,17.84
2018-04-14T12:54:02.706Z,18.07
2018-04-14T12:55:05.547Z,18.23
2018-04-14T12:56:08.733Z,18.37
2018-04-14T12:57:12.703Z,18.64
2018-04-14T12:58:16.854Z,18.81
2018-04-14T12:59:19.704Z,19.16
2018-04-14T13:00:22.611Z,19.11
2018-04-14T13:01:25.517Z,19.16
2018-04-14T13:02:29.943Z,19.16
2018-04-14T13:03:33.420Z,19.24
2018-04-14T13:04:36.264Z,19.34
2018-04-14T13:05:39.176Z,19.31
2018-04-14T13:06:42.004Z,19.10
2018-04-14T13:07:45.871Z,19.03
2018-04-14T13:08:49.411Z,19.18
2018-04-14T13:09:52.241Z,19.45
2018-04-14T13:10:55.049Z,19.64
2018-04-14T13:11:57.903Z,19.47
2018-04-14T13:13:00.848Z,19.42
2018-04-14T13:14:04.091Z,19.32
2018-04-14T13:15:06.978Z,19.34
2018-04-14T13:16:09.784Z,19.43
2018-04-14T13:17:12.775Z,19.66
2018-04-14T13:18:16.155Z,19.77
2018-04-14T13:19:19.044Z,19.94
2018-04-14T13:20:22.168Z,19.84
2018-04-14T13:21:25.226Z,19.70
2018-04-14T13:22:29.254Z,20.00
2018-04-14T13:23:33.165Z,20.11
2018-04-14T13:24:36.039Z,19.88
2018-04-14T13:25:39.146Z,19.56
2018-04-14T13:26:42.268Z,18.99
2018-04-14T13:27:45.086Z,19.00
2018-04-14T13:28:48.862Z,19.03
2018-04-14T13:29:51.727Z,19.24
2018-04-14T13:30:54.516Z,19.21
2018-04-14T13:31:57.341Z,19.05
2018-04-14T13:33:00.687Z,18.90
2018-04-14T13:34:03.573Z,18.56
2018-04-14T13:35:06.564Z,18.64
2018-04-14T13:36:09.405Z,18.45
2018-04-14T13:37:12.221Z,18.54
2018-04-14T13:38:15.045Z,18.60
2018-04-14T13:39:18.278Z,18.47
2018-04-14T13:40:21.104Z,18.47
2018-04-14T13:41:23.857Z,18.43
2018-04-14T13:42:26.604Z,18.50
2018-04-14T13:43:29.462Z,18.54
2018-04-14T13:44:32.274Z,18.49